Time;durP1;ratioP1;P1;durP2;ratioP2;P2;SDS_P1;SDS_P2;PMS_P1;PMS_P2;Temp;Humidity;BMP_temperature;BMP_pressure;BME280_temperature;BME280_humidity;BME280_pressure;Samples;Min_cycle;Max_cycle;Signal;HPM_P1;HPM_P2
2022/06/10 00:00:15;;;;;;;;;;;12.10;99.90;;;;;;5014538;28;19933;-79
2022/06/10 00:02:43;;;;;;;;;;;12.10;99.90;;;;;;5009586;28;19928;-80
2022/06/10 00:05:13;;;;;;;;;;;12.00;99.90;;;;;;4996196;28;20580;-79
2022/06/10 00:07:39;;;;;;;;;;;12.00;99.90;;;;;;5000300;28;19929;-79
2022/06/10 00:10:06;;;;;;;;;;;11.90;99.90;;;;;;5012336;28;20721;-79
2022/06/10 00:12:31;;;;;;;;;;;11.80;99.90;;;;;;5011075;28;20451;-79
2022/06/10 00:14:57;;;;;;;;;;;11.80;99.90;;;;;;5010561;28;20008;-79
2022/06/10 00:17:22;;;;;;;;;;;12.00;99.90;;;;;;4994672;28;19936;-79
2022/06/10 00:19:48;;;;;;;;;;;12.00;99.90;;;;;;5012246;28;20315;-80
2022/06/10 00:22:14;;;;;;;;;;;12.10;99.90;;;;;;5012542;28;20393;-79
2022/06/10 00:24:39;;;;;;;;;;;12.30;99.90;;;;;;4999316;28;19928;-79
2022/06/10 00:27:05;;;;;;;;;;;12.40;99.90;;;;;;5016702;28;19929;-79
2022/06/10 00:29:32;;;;;;;;;;;12.30;99.90;;;;;;5024011;28;19935;-78
2022/06/10 00:31:58;;;;;;;;;;;12.30;99.90;;;;;;5027924;28;20271;-79
2022/06/10 00:34:24;;;;;;;;;;;12.00;99.90;;;;;;5011373;28;19929;-79
2022/06/10 00:36:49;;;;;;;;;;;12.00;99.90;;;;;;5026751;28;19932;-79
2022/06/10 00:39:15;;;;;;;;;;;12.00;99.90;;;;;;5011236;28;20293;-79
2022/06/10 00:41:42;;;;;;;;;;;12.00;99.90;;;;;;5028527;28;20368;-79
2022/06/10 00:44:26;;;;;;;;;;;12.20;99.90;;;;;;5016257;28;20025;-79
2022/06/10 00:46:52;;;;;;;;;;;12.20;99.90;;;;;;5029092;28;19929;-79
2022/06/10 00:49:17;;;;;;;;;;;12.10;99.90;;;;;;5023412;28;19940;-79
2022/06/10 00:51:51;;;;;;;;;;;12.00;99.90;;;;;;5026357;28;20674;-79
2022/06/10 00:54:19;;;;;;;;;;;12.00;99.90;;;;;;5027273;28;19982;-78
2022/06/10 00:56:48;;;;;;;;;;;12.00;99.90;;;;;;5027387;28;20592;-78
2022/06/10 00:59:20;;;;;;;;;;;12.10;99.90;;;;;;5027106;28;19929;-79
2022/06/10 01:01:46;;;;;;;;;;;12.10;99.90;;;;;;5027322;28;19933;-79
2022/06/10 01:04:12;;;;;;;;;;;12.10;99.90;;;;;;5028545;28;19932;-79
2022/06/10 01:06:38;;;;;;;;;;;12.10;99.90;;;;;;5025647;28;19929;-80
2022/06/10 01:09:04;;;;;;;;;;;12.00;99.90;;;;;;5012322;28;19932;-79
2022/06/10 01:11:30;;;;;;;;;;;12.10;99.90;;;;;;5011279;28;20125;-80
2022/06/10 01:13:55;;;;;;;;;;;11.90;99.90;;;;;;5027622;28;19935;-79
2022/06/10 01:16:35;;;;;;;;;;;12.00;99.90;;;;;;5028963;28;20339;-79
2022/06/10 01:19:19;;;;;;;;;;;11.90;99.90;;;;;;5029012;28;19929;-79
2022/06/10 01:21:55;;;;;;;;;;;11.90;99.90;;;;;;5012687;28;19983;-78
2022/06/10 01:24:27;;;;;;;;;;;11.90;99.90;;;;;;5027270;28;20020;-78
2022/06/10 01:29:45;;;;;;;;;;;11.90;99.90;;;;;;5026548;28;19928;-78
2022/06/10 01:32:17;;;;;;;;;;;11.90;99.90;;;;;;5012565;28;19963;-78
2022/06/10 01:35:01;;;;;;;;;;;12.00;99.90;;;;;;5027600;28;19936;-79
2022/06/10 01:37:39;;;;;;;;;;;12.00;99.90;;;;;;4999236;28;19934;-79
2022/06/10 01:40:18;;;;;;;;;;;12.10;99.90;;;;;;5011572;28;19936;-79
2022/06/10 01:43:19;;;;;;;;;;;12.10;99.90;;;;;;5026026;28;20039;-79
2022/06/10 01:45:51;;;;;;;;;;;12.10;99.90;;;;;;4935256;28;19938;-78
2022/06/10 01:48:40;;;;;;;;;;;12.20;99.90;;;;;;5011116;28;19935;-78
2022/06/10 01:51:11;;;;;;;;;;;12.30;99.90;;;;;;4997313;28;19924;-79
2022/06/10 01:53:44;;;;;;;;;;;12.30;99.90;;;;;;5026284;28;20354;-79
2022/06/10 01:56:16;;;;;;;;;;;12.20;99.90;;;;;;5009513;28;20417;-79
2022/06/10 01:58:47;;;;;;;;;;;12.20;99.90;;;;;;5025924;28;19999;-79
2022/06/10 02:01:16;;;;;;;;;;;12.20;99.90;;;;;;5026262;28;19989;-79
2022/06/10 02:03:46;;;;;;;;;;;12.20;99.90;;;;;;5028653;28;20556;-79
2022/06/10 02:06:11;;;;;;;;;;;12.10;99.90;;;;;;5030410;28;20291;-79
2022/06/10 02:08:40;;;;;;;;;;;12.10;99.90;;;;;;5028737;28;19935;-79
2022/06/10 02:11:12;;;;;;;;;;;12.10;99.90;;;;;;5028029;28;19928;-78
2022/06/10 02:13:46;;;;;;;;;;;12.00;99.90;;;;;;5025286;28;19925;-79
2022/06/10 02:16:14;;;;;;;;;;;12.20;99.90;;;;;;5027466;28;20293;-78
2022/06/10 02:18:47;;;;;;;;;;;12.00;99.90;;;;;;5025914;28;19929;-78
2022/06/10 02:21:23;;;;;;;;;;;11.90;99.90;;;;;;5026029;28;19944;-78
2022/06/10 02:23:53;;;;;;;;;;;11.90;99.90;;;;;;5025536;28;20352;-78
2022/06/10 02:26:19;;;;;;;;;;;11.90;99.90;;;;;;5025861;28;20659;-78
2022/06/10 02:28:48;;;;;;;;;;;12.00;99.90;;;;;;5026056;28;19924;-78
2022/06/10 02:31:20;;;;;;;;;;;11.90;99.90;;;;;;5024521;28;19933;-78
2022/06/10 02:33:48;;;;;;;;;;;11.70;99.90;;;;;;5025439;28;19954;-78
2022/06/10 02:36:20;;;;;;;;;;;11.80;99.90;;;;;;5025559;28;19940;-78
2022/06/10 02:38:48;;;;;;;;;;;11.80;99.90;;;;;;5024803;28;19925;-79
2022/06/10 02:41:14;;;;;;;;;;;11.80;99.90;;;;;;5026544;28;20671;-79
2022/06/10 02:44:05;;;;;;;;;;;11.90;99.90;;;;;;5024835;28;19928;-78
2022/06/10 02:46:47;;;;;;;;;;;12.00;99.90;;;;;;5020179;28;19928;-79
2022/06/10 02:49:15;;;;;;;;;;;11.80;99.90;;;;;;5009237;28;19935;-78
2022/06/10 02:51:40;;;;;;;;;;;11.80;99.90;;;;;;5025935;28;20289;-78
2022/06/10 02:54:11;;;;;;;;;;;11.70;99.90;;;;;;5025527;28;20042;-79
2022/06/10 02:56:36;;;;;;;;;;;11.50;99.90;;;;;;5007613;28;20392;-78
2022/06/10 03:01:54;;;;;;;;;;;11.20;99.90;;;;;;5011271;28;20024;-78
2022/06/10 03:04:25;;;;;;;;;;;11.10;99.90;;;;;;5026504;28;20358;-78
2022/06/10 03:07:03;;;;;;;;;;;11.10;99.90;;;;;;5026467;28;19935;-78
2022/06/10 03:09:29;;;;;;;;;;;11.20;99.90;;;;;;5027248;28;20039;-79
2022/06/10 03:11:55;;;;;;;;;;;11.20;99.90;;;;;;5027399;28;19935;-77
2022/06/10 03:14:23;;;;;;;;;;;11.20;99.90;;;;;;5025216;28;20293;-76
2022/06/10 03:17:07;;;;;;;;;;;11.40;99.90;;;;;;5027540;28;20311;-77
2022/06/10 03:19:36;;;;;;;;;;;11.50;99.90;;;;;;5026779;28;19929;-77
2022/06/10 03:22:04;;;;;;;;;;;11.30;99.90;;;;;;5026581;28;20018;-78
2022/06/10 03:24:36;;;;;;;;;;;11.30;99.90;;;;;;5026445;28;21594;-79
2022/06/10 03:27:11;;;;;;;;;;;11.30;99.90;;;;;;5025633;28;20410;-78
2022/06/10 03:29:40;;;;;;;;;;;11.40;99.90;;;;;;5007784;28;20469;-78
2022/06/10 03:32:28;;;;;;;;;;;11.40;99.90;;;;;;5027719;28;19986;-78
2022/06/10 03:35:08;;;;;;;;;;;11.30;99.90;;;;;;5013798;28;20390;-78
2022/06/10 03:37:35;;;;;;;;;;;11.30;99.90;;;;;;5026033;28;20842;-78
2022/06/10 03:40:01;;;;;;;;;;;11.40;99.90;;;;;;5025933;28;21708;-78
2022/06/10 03:42:27;;;;;;;;;;;11.20;99.90;;;;;;5026605;28;19975;-78
2022/06/10 03:44:55;;;;;;;;;;;11.10;99.90;;;;;;5024873;28;19968;-78
2022/06/10 03:47:27;;;;;;;;;;;11.10;99.90;;;;;;5009419;28;19933;-78
2022/06/10 03:49:54;;;;;;;;;;;11.00;99.90;;;;;;5008925;28;19928;-77
2022/06/10 03:52:22;;;;;;;;;;;10.90;99.90;;;;;;5008473;28;19933;-78
2022/06/10 03:54:48;;;;;;;;;;;10.90;99.90;;;;;;5023704;28;19929;-78
2022/06/10 03:57:14;;;;;;;;;;;10.90;99.90;;;;;;5024502;28;20298;-78
2022/06/10 03:59:40;;;;;;;;;;;10.90;99.90;;;;;;5008897;28;19936;-78
2022/06/10 04:02:05;;;;;;;;;;;11.00;99.90;;;;;;5025602;28;19929;-78
2022/06/10 04:04:31;;;;;;;;;;;11.00;99.90;;;;;;5025010;28;19928;-78
2022/06/10 04:06:56;;;;;;;;;;;11.00;99.90;;;;;;5025212;28;20352;-79
2022/06/10 04:09:22;;;;;;;;;;;11.00;99.90;;;;;;5009677;28;20429;-79
2022/06/10 04:11:48;;;;;;;;;;;11.10;99.90;;;;;;5009863;28;20004;-79
2022/06/10 04:14:14;;;;;;;;;;;11.10;99.90;;;;;;5025376;28;20021;-78
2022/06/10 04:16:39;;;;;;;;;;;11.20;99.90;;;;;;5024439;28;20705;-78
2022/06/10 04:19:05;;;;;;;;;;;11.20;99.90;;;;;;5024864;28;19948;-79
2022/06/10 04:21:30;;;;;;;;;;;11.30;99.90;;;;;;5024651;28;19929;-78
2022/06/10 04:23:56;;;;;;;;;;;11.40;99.90;;;;;;5028723;28;19972;-78
2022/06/10 04:26:22;;;;;;;;;;;11.50;99.90;;;;;;5014046;28;19951;-79
2022/06/10 04:28:47;;;;;;;;;;;11.60;99.90;;;;;;5029070;28;19929;-78
2022/06/10 04:31:13;;;;;;;;;;;11.70;99.90;;;;;;5028052;28;19929;-79
2022/06/10 04:33:39;;;;;;;;;;;11.80;99.90;;;;;;5027914;28;19929;-78
2022/06/10 04:36:05;;;;;;;;;;;11.90;99.90;;;;;;5029360;28;19982;-78
2022/06/10 04:38:32;;;;;;;;;;;12.20;99.90;;;;;;5025651;28;19929;-78
2022/06/10 04:40:58;;;;;;;;;;;12.50;99.90;;;;;;5028743;28;19932;-78
2022/06/10 04:43:24;;;;;;;;;;;14.00;99.90;;;;;;5012921;28;20521;-79
2022/06/10 04:45:51;;;;;;;;;;;15.50;99.90;;;;;;5027797;28;20601;-79
2022/06/10 04:48:17;;;;;;;;;;;17.10;99.90;;;;;;5011770;28;19944;-79
2022/06/10 04:50:43;;;;;;;;;;;18.10;99.90;;;;;;5027215;28;19971;-79
2022/06/10 04:53:10;;;;;;;;;;;19.10;99.90;;;;;;5027578;28;20043;-79
2022/06/10 04:55:36;;;;;;;;;;;20.00;99.90;;;;;;5025781;28;20390;-80
2022/06/10 04:58:01;;;;;;;;;;;20.90;99.90;;;;;;5010512;28;19932;-79
2022/06/10 05:00:37;;;;;;;;;;;21.40;99.90;;;;;;5026681;28;19929;-80
2022/06/10 05:03:03;;;;;;;;;;;22.10;99.90;;;;;;5010949;28;19972;-79
2022/06/10 05:05:29;;;;;;;;;;;22.80;99.90;;;;;;5028796;28;19967;-79
2022/06/10 05:07:55;;;;;;;;;;;23.50;99.90;;;;;;5012188;28;20021;-79
2022/06/10 05:10:21;;;;;;;;;;;23.80;99.90;;;;;;5032485;28;20036;-79
2022/06/10 05:12:47;;;;;;;;;;;24.60;99.90;;;;;;5029563;28;19928;-80
2022/06/10 05:15:13;;;;;;;;;;;24.60;99.90;;;;;;5029347;28;19983;-79
2022/06/10 05:17:39;;;;;;;;;;;25.30;99.90;;;;;;4998129;28;19936;-81
2022/06/10 05:20:05;;;;;;;;;;;25.40;99.90;;;;;;4976391;28;19936;-81
2022/06/10 05:22:30;;;;;;;;;;;24.90;99.90;;;;;;5009823;28;19940;-82
2022/06/10 05:24:56;;;;;;;;;;;25.20;99.90;;;;;;5009029;28;19979;-81
2022/06/10 05:27:22;;;;;;;;;;;23.30;99.90;;;;;;5007027;28;20612;-82
2022/06/10 05:29:47;;;;;;;;;;;22.50;99.90;;;;;;5009460;28;20876;-82
2022/06/10 05:32:13;;;;;;;;;;;22.00;99.90;;;;;;5006896;28;19928;-81
2022/06/10 05:34:44;;;;;;;;;;;20.70;99.90;;;;;;5006443;28;20104;-83
2022/06/10 05:37:11;;;;;;;;;;;19.80;99.90;;;;;;4983821;28;20012;-84
2022/06/10 05:39:36;;;;;;;;;;;18.80;99.90;;;;;;4966529;28;19971;-82
2022/06/10 05:42:05;;;;;;;;;;;18.40;99.90;;;;;;5018498;28;20039;-80
2022/06/10 05:44:31;;;;;;;;;;;17.80;99.90;;;;;;5002662;28;20003;-81
2022/06/10 05:46:57;;;;;;;;;;;17.20;99.90;;;;;;5018812;28;19939;-84
2022/06/10 05:49:22;;;;;;;;;;;16.90;99.90;;;;;;4997825;28;19928;-83
2022/06/10 05:51:48;;;;;;;;;;;16.70;99.90;;;;;;4992249;28;20734;-82
2022/06/10 05:54:14;;;;;;;;;;;16.50;99.90;;;;;;5006877;28;20031;-83
2022/06/10 05:56:40;;;;;;;;;;;16.50;99.90;;;;;;5024638;28;19933;-82
2022/06/10 05:59:06;;;;;;;;;;;16.30;99.90;;;;;;5026302;28;20392;-77
2022/06/10 06:01:32;;;;;;;;;;;16.20;99.90;;;;;;5029027;28;19929;-81
2022/06/10 06:03:57;;;;;;;;;;;16.20;99.90;;;;;;5002295;28;19935;-82
2022/06/10 06:06:23;;;;;;;;;;;16.10;99.90;;;;;;5013317;28;19929;-82
2022/06/10 06:08:49;;;;;;;;;;;16.00;99.90;;;;;;5013303;28;19952;-81
2022/06/10 06:11:15;;;;;;;;;;;15.90;99.90;;;;;;5030052;28;20051;-80
2022/06/10 06:13:40;;;;;;;;;;;15.90;99.90;;;;;;5029942;28;19951;-83
2022/06/10 06:16:06;;;;;;;;;;;15.80;99.90;;;;;;5032116;28;19929;-81
2022/06/10 06:18:32;;;;;;;;;;;15.90;99.90;;;;;;5011652;28;20287;-81
2022/06/10 06:20:57;;;;;;;;;;;16.00;99.90;;;;;;5012303;28;19935;-86
2022/06/10 06:23:23;;;;;;;;;;;16.10;99.90;;;;;;5013265;28;19924;-82
2022/06/10 06:25:48;;;;;;;;;;;16.30;99.90;;;;;;5030284;28;20945;-81
2022/06/10 06:28:14;;;;;;;;;;;16.40;99.90;;;;;;5031400;28;19933;-81
2022/06/10 06:30:40;;;;;;;;;;;16.40;99.90;;;;;;5028130;28;20016;-80
2022/06/10 06:33:07;;;;;;;;;;;16.50;99.90;;;;;;5028424;28;20302;-80
2022/06/10 06:35:34;;;;;;;;;;;16.40;99.90;;;;;;5029104;28;20217;-82
2022/06/10 06:38:01;;;;;;;;;;;16.20;99.90;;;;;;5028361;28;19932;-84
2022/06/10 06:40:27;;;;;;;;;;;16.10;99.90;;;;;;4983344;28;20520;-84
2022/06/10 06:42:52;;;;;;;;;;;15.90;99.90;;;;;;5027388;28;19960;-77
2022/06/10 06:45:19;;;;;;;;;;;15.90;99.90;;;;;;5028074;28;20587;-83
2022/06/10 06:47:45;;;;;;;;;;;16.00;99.90;;;;;;5027788;28;19959;-81
2022/06/10 06:50:13;;;;;;;;;;;16.10;99.90;;;;;;5018511;28;19929;-82
2022/06/10 06:52:40;;;;;;;;;;;16.20;99.90;;;;;;5013759;28;19936;-81
2022/06/10 06:55:05;;;;;;;;;;;16.30;99.90;;;;;;5031351;28;19944;-81
2022/06/10 06:57:31;;;;;;;;;;;16.30;99.90;;;;;;5014311;28;20810;-81
2022/06/10 07:00:06;;;;;;;;;;;16.30;99.90;;;;;;5032516;28;20334;-83
2022/06/10 07:02:35;;;;;;;;;;;16.10;99.90;;;;;;5030011;28;19982;-82
2022/06/10 07:05:02;;;;;;;;;;;15.90;99.90;;;;;;5015305;28;19941;-81
2022/06/10 07:07:28;;;;;;;;;;;15.90;99.90;;;;;;5032160;28;19929;-81
2022/06/10 07:09:54;;;;;;;;;;;15.90;99.90;;;;;;5030262;28;19928;-79
2022/06/10 07:12:19;;;;;;;;;;;15.80;99.90;;;;;;5011553;28;19939;-81
2022/06/10 07:14:45;;;;;;;;;;;15.80;99.90;;;;;;5011681;28;19928;-81
2022/06/10 07:17:11;;;;;;;;;;;15.90;99.90;;;;;;5013576;28;19928;-80
2022/06/10 07:19:37;;;;;;;;;;;16.00;99.90;;;;;;5030318;28;20016;-80
2022/06/10 07:22:06;;;;;;;;;;;16.00;99.90;;;;;;5014358;28;19956;-80
2022/06/10 07:24:32;;;;;;;;;;;16.30;99.90;;;;;;5031083;28;19929;-82
2022/06/10 07:27:03;;;;;;;;;;;16.40;99.90;;;;;;5030785;28;20297;-80
2022/06/10 07:29:29;;;;;;;;;;;16.60;99.90;;;;;;5029963;28;19929;-81
2022/06/10 07:31:55;;;;;;;;;;;16.50;99.90;;;;;;5001051;28;19932;-81
2022/06/10 07:34:21;;;;;;;;;;;16.60;99.90;;;;;;5030702;28;19998;-84
2022/06/10 07:36:46;;;;;;;;;;;16.60;99.90;;;;;;5013565;28;19958;-80
2022/06/10 07:39:12;;;;;;;;;;;16.70;99.90;;;;;;5031691;28;19939;-82
2022/06/10 07:44:23;;;;;;;;;;;16.80;99.90;;;;;;5029587;28;19928;-81
2022/06/10 07:46:52;;;;;;;;;;;17.10;99.90;;;;;;5027684;28;19935;-83
2022/06/10 07:49:18;;;;;;;;;;;17.40;99.90;;;;;;5030840;28;19964;-82
2022/06/10 07:51:43;;;;;;;;;;;17.60;99.90;;;;;;5030673;28;20355;-81
2022/06/10 07:54:09;;;;;;;;;;;17.90;99.90;;;;;;4995951;28;19929;-80
2022/06/10 07:56:35;;;;;;;;;;;18.00;99.90;;;;;;5011768;28;19929;-82
2022/06/10 07:59:01;;;;;;;;;;;18.30;99.90;;;;;;5017152;28;19940;-82
2022/06/10 08:01:28;;;;;;;;;;;18.50;99.90;;;;;;5034250;28;19975;-83
2022/06/10 08:03:54;;;;;;;;;;;18.20;99.90;;;;;;5000138;28;19941;-82
2022/06/10 08:06:21;;;;;;;;;;;18.20;99.90;;;;;;5026679;28;19933;-81
2022/06/10 08:08:47;;;;;;;;;;;18.40;99.90;;;;;;5022414;28;20087;-84
2022/06/10 08:11:13;;;;;;;;;;;18.20;99.90;;;;;;5022465;28;20302;-82
2022/06/10 08:13:39;;;;;;;;;;;18.10;99.90;;;;;;5002521;28;19939;-82
2022/06/10 08:16:04;;;;;;;;;;;18.20;99.90;;;;;;5029935;28;20691;-80
2022/06/10 08:18:33;;;;;;;;;;;18.20;99.90;;;;;;5014909;28;19959;-82
2022/06/10 08:23:44;;;;;;;;;;;18.10;99.90;;;;;;5030115;28;20007;-82
2022/06/10 08:26:10;;;;;;;;;;;17.90;99.90;;;;;;5012616;28;19929;-82
2022/06/10 08:28:37;;;;;;;;;;;17.90;99.90;;;;;;5027874;28;20340;-81
2022/06/10 08:31:03;;;;;;;;;;;17.80;99.90;;;;;;5000784;28;20310;-81
2022/06/10 08:33:29;;;;;;;;;;;17.60;99.90;;;;;;5004448;28;20298;-83
2022/06/10 08:35:57;;;;;;;;;;;17.80;99.90;;;;;;5033255;28;20444;-83
2022/06/10 08:38:23;;;;;;;;;;;18.10;99.90;;;;;;5029619;28;20393;-82
2022/06/10 08:40:48;;;;;;;;;;;18.40;99.90;;;;;;5012492;28;19925;-82
2022/06/10 08:43:14;;;;;;;;;;;18.50;99.90;;;;;;5030117;28;19929;-82
2022/06/10 08:46:21;;;;;;;;;;;18.60;99.90;;;;;;5028303;28;19936;-81
2022/06/10 08:48:49;;;;;;;;;;;18.60;99.90;;;;;;4953597;28;19929;-83
2022/06/10 08:51:15;;;;;;;;;;;18.60;99.90;;;;;;5020944;28;20003;-82
2022/06/10 08:53:53;;;;;;;;;;;18.70;99.90;;;;;;5012359;28;20019;-82
2022/06/10 08:56:42;;;;;;;;;;;18.80;99.90;;;;;;5030071;28;20329;-82
2022/06/10 08:59:27;;;;;;;;;;;18.70;99.90;;;;;;5012063;28;19929;-82
2022/06/10 09:02:00;;;;;;;;;;;18.80;99.90;;;;;;5011841;28;19928;-83
2022/06/10 09:04:29;;;;;;;;;;;18.80;99.90;;;;;;5013735;28;19929;-82
2022/06/10 09:06:57;;;;;;;;;;;18.90;99.90;;;;;;5030240;28;21008;-84
2022/06/10 09:09:26;;;;;;;;;;;19.00;99.90;;;;;;5009487;28;19982;-82
2022/06/10 09:12:11;;;;;;;;;;;19.40;99.90;;;;;;5030896;28;19940;-82
2022/06/10 09:14:37;;;;;;;;;;;19.70;99.90;;;;;;5031801;28;20047;-88
2022/06/10 09:17:05;;;;;;;;;;;19.60;99.90;;;;;;5032477;28;19928;-82
2022/06/10 09:19:46;;;;;;;;;;;19.40;99.90;;;;;;5014424;28;19929;-80
2022/06/10 09:22:12;;;;;;;;;;;19.30;99.90;;;;;;5032766;28;19928;-83
2022/06/10 09:24:41;;;;;;;;;;;19.10;99.90;;;;;;5012759;28;19929;-80
2022/06/10 09:27:20;;;;;;;;;;;18.90;99.90;;;;;;5031671;28;19928;-79
2022/06/10 09:29:46;;;;;;;;;;;18.70;99.90;;;;;;5014636;28;19935;-82
2022/06/10 09:32:24;;;;;;;;;;;18.60;99.90;;;;;;5013747;28;20056;-82
2022/06/10 09:34:50;;;;;;;;;;;18.60;99.90;;;;;;5030795;28;20702;-83
2022/06/10 09:37:21;;;;;;;;;;;18.60;99.90;;;;;;5015616;28;19933;-84
2022/06/10 09:42:50;;;;;;;;;;;18.40;99.90;;;;;;5013963;28;20437;-86
2022/06/10 09:45:24;;;;;;;;;;;18.50;99.90;;;;;;5028957;28;19940;-83
2022/06/10 09:48:07;;;;;;;;;;;18.50;99.90;;;;;;5028046;28;19939;-82
2022/06/10 09:50:41;;;;;;;;;;;18.60;99.90;;;;;;5029856;28;19968;-84
2022/06/10 09:53:25;;;;;;;;;;;18.80;99.90;;;;;;5029938;28;20394;-81
2022/06/10 09:56:27;;;;;;;;;;;19.00;99.90;;;;;;4981002;28;20337;-82
2022/06/10 09:59:29;;;;;;;;;;;19.10;99.90;;;;;;4940951;28;19930;-82
2022/06/10 10:01:58;;;;;;;;;;;19.40;99.90;;;;;;4948622;28;19934;-83
2022/06/10 10:04:27;;;;;;;;;;;19.70;99.90;;;;;;5017765;28;19928;-82
2022/06/10 10:06:55;;;;;;;;;;;20.10;99.90;;;;;;5029599;28;19928;-82
2022/06/10 10:09:36;;;;;;;;;;;20.40;99.90;;;;;;5032013;28;19948;-83
2022/06/10 10:12:24;;;;;;;;;;;20.60;99.90;;;;;;5030773;28;19975;-82
2022/06/10 10:14:59;;;;;;;;;;;21.00;99.90;;;;;;5013767;28;20888;-83
2022/06/10 10:17:31;;;;;;;;;;;21.20;99.90;;;;;;5033039;28;19933;-80
2022/06/10 10:20:05;;;;;;;;;;;21.10;99.90;;;;;;5033620;28;19932;-82
2022/06/10 10:22:31;;;;;;;;;;;21.00;99.90;;;;;;5002028;28;19928;-83
2022/06/10 10:24:57;;;;;;;;;;;21.20;99.90;;;;;;5034727;28;19932;-82
2022/06/10 10:27:28;;;;;;;;;;;22.00;99.90;;;;;;5014413;28;19974;-83
2022/06/10 10:30:17;;;;;;;;;;;22.30;99.90;;;;;;5031634;28;20019;-81
2022/06/10 10:32:45;;;;;;;;;;;21.80;99.90;;;;;;5003493;28;20364;-82
2022/06/10 10:35:17;;;;;;;;;;;22.00;99.90;;;;;;5014471;28;20015;-81
2022/06/10 10:37:49;;;;;;;;;;;22.20;99.90;;;;;;5026226;28;19933;-80
2022/06/10 10:40:21;;;;;;;;;;;22.10;99.90;;;;;;5010079;28;20449;-83
2022/06/10 10:42:51;;;;;;;;;;;22.00;99.90;;;;;;5006750;28;19931;-82
2022/06/10 10:45:16;;;;;;;;;;;22.00;99.90;;;;;;5004460;28;21003;-81
2022/06/10 10:47:48;;;;;;;;;;;22.30;99.90;;;;;;5024737;28;19929;-83
2022/06/10 10:50:14;;;;;;;;;;;22.50;99.90;;;;;;5026196;28;19975;-86
2022/06/10 10:52:40;;;;;;;;;;;22.50;99.90;;;;;;5025010;28;20043;-80
2022/06/10 10:55:21;;;;;;;;;;;22.40;99.90;;;;;;5024722;28;19950;-83
2022/06/10 10:57:59;;;;;;;;;;;22.70;99.90;;;;;;5005447;28;20381;-81
2022/06/10 11:00:27;;;;;;;;;;;23.50;99.90;;;;;;5026582;28;19940;-82
2022/06/10 11:02:54;;;;;;;;;;;23.30;99.90;;;;;;4979911;28;19936;-82
2022/06/10 11:05:23;;;;;;;;;;;23.20;99.90;;;;;;5023528;28;19925;-83
2022/06/10 11:08:07;;;;;;;;;;;22.70;99.90;;;;;;5025512;28;20281;-80
2022/06/10 11:10:34;;;;;;;;;;;22.60;99.90;;;;;;5025047;28;19929;-82
2022/06/10 11:13:05;;;;;;;;;;;23.50;99.90;;;;;;5008158;28;19936;-83
2022/06/10 11:15:31;;;;;;;;;;;23.30;99.90;;;;;;5005800;28;19975;-82
2022/06/10 11:17:58;;;;;;;;;;;23.90;99.90;;;;;;5025778;28;19932;-81
2022/06/10 11:20:27;;;;;;;;;;;24.30;99.90;;;;;;5010285;28;20015;-82
2022/06/10 11:23:11;;;;;;;;;;;23.70;99.90;;;;;;5025525;28;19929;-82
2022/06/10 11:25:37;;;;;;;;;;;23.40;99.90;;;;;;5023491;28;19929;-83
2022/06/10 11:28:05;;;;;;;;;;;23.10;99.90;;;;;;5008283;28;19995;-81
2022/06/10 11:30:32;;;;;;;;;;;22.70;99.90;;;;;;5010288;28;20008;-82
2022/06/10 11:33:01;;;;;;;;;;;22.60;99.90;;;;;;5025999;28;19929;-82
2022/06/10 11:35:27;;;;;;;;;;;22.70;99.90;;;;;;5001438;28;20362;-86
2022/06/10 11:37:54;;;;;;;;;;;22.70;99.90;;;;;;5014509;28;19925;-82
2022/06/10 11:40:25;;;;;;;;;;;22.90;99.90;;;;;;5035007;28;19936;-82
2022/06/10 11:42:53;;;;;;;;;;;22.90;99.90;;;;;;5034383;28;19945;-83
2022/06/10 11:45:26;;;;;;;;;;;23.10;99.90;;;;;;5014842;28;19972;-83
2022/06/10 11:48:04;;;;;;;;;;;23.00;99.90;;;;;;5033020;28;19968;-81
2022/06/10 11:50:33;;;;;;;;;;;23.10;99.90;;;;;;5033680;28;19928;-80
2022/06/10 11:53:09;;;;;;;;;;;23.30;99.90;;;;;;5032832;28;20440;-84
2022/06/10 11:55:37;;;;;;;;;;;23.70;99.90;;;;;;5033217;28;20066;-83
2022/06/10 12:00:55;;;;;;;;;;;24.20;99.90;;;;;;5017445;28;19929;-81
2022/06/10 12:03:34;;;;;;;;;;;23.80;99.90;;;;;;5033975;28;19925;-81
2022/06/10 12:06:06;;;;;;;;;;;24.20;99.90;;;;;;5035283;28;19932;-84
2022/06/10 12:08:42;;;;;;;;;;;24.50;99.90;;;;;;5033963;28;19932;-81
2022/06/10 12:11:13;;;;;;;;;;;24.40;99.90;;;;;;5036286;28;19986;-79
2022/06/10 12:13:45;;;;;;;;;;;23.70;99.90;;;;;;5032557;28;19935;-77
2022/06/10 12:16:12;;;;;;;;;;;23.10;99.90;;;;;;5033474;28;19975;-80
2022/06/10 12:18:42;;;;;;;;;;;22.80;99.90;;;;;;5015211;28;19929;-83
2022/06/10 12:21:14;;;;;;;;;;;22.40;99.90;;;;;;5032059;28;19928;-82
2022/06/10 12:23:40;;;;;;;;;;;22.30;99.90;;;;;;5015032;28;20444;-82
2022/06/10 12:26:16;;;;;;;;;;;22.40;99.90;;;;;;5033919;28;20022;-81
2022/06/10 12:28:46;;;;;;;;;;;22.60;99.90;;;;;;5012029;28;19971;-82
2022/06/10 12:31:14;;;;;;;;;;;22.60;99.90;;;;;;5033225;28;20015;-80
2022/06/10 12:33:47;;;;;;;;;;;22.70;99.90;;;;;;5030899;28;19932;-82
2022/06/10 12:36:17;;;;;;;;;;;22.90;99.90;;;;;;5026786;28;19929;-82
2022/06/10 12:38:43;;;;;;;;;;;23.10;99.90;;;;;;5012957;28;20409;-81
2022/06/10 12:41:15;;;;;;;;;;;23.40;99.90;;;;;;5032903;28;19929;-81
2022/06/10 12:43:43;;;;;;;;;;;23.20;99.90;;;;;;5001082;28;20287;-83
2022/06/10 12:46:28;;;;;;;;;;;22.70;99.90;;;;;;4997629;28;19933;-82
2022/06/10 12:48:54;;;;;;;;;;;22.50;99.90;;;;;;5016929;28;19936;-82
2022/06/10 12:51:29;;;;;;;;;;;22.30;99.90;;;;;;4990202;28;19928;-81
2022/06/10 12:54:03;;;;;;;;;;;22.60;99.90;;;;;;5002113;28;19972;-81
2022/06/10 12:56:33;;;;;;;;;;;22.50;99.90;;;;;;4984062;28;20019;-83
2022/06/10 12:59:08;;;;;;;;;;;22.50;99.90;;;;;;4998336;28;20011;-82
2022/06/10 13:01:34;;;;;;;;;;;22.20;99.90;;;;;;5017884;28;19929;-83
2022/06/10 13:04:08;;;;;;;;;;;22.30;99.90;;;;;;5016714;28;19936;-82
2022/06/10 13:06:34;;;;;;;;;;;22.50;99.90;;;;;;5016521;28;21095;-82
2022/06/10 13:09:12;;;;;;;;;;;22.60;99.90;;;;;;4999487;28;20035;-82
2022/06/10 13:11:47;;;;;;;;;;;22.70;99.90;;;;;;4999503;28;19982;-81
2022/06/10 13:14:22;;;;;;;;;;;22.60;99.90;;;;;;5016534;28;20301;-81
2022/06/10 13:17:06;;;;;;;;;;;22.70;99.90;;;;;;5000300;28;20569;-81
2022/06/10 13:19:31;;;;;;;;;;;22.40;99.90;;;;;;4999932;28;19935;-82
2022/06/10 13:21:58;;;;;;;;;;;22.50;99.90;;;;;;5017109;28;19990;-81
2022/06/10 13:24:24;;;;;;;;;;;22.60;99.90;;;;;;4981033;28;19924;-82
2022/06/10 13:26:51;;;;;;;;;;;22.60;99.90;;;;;;4998020;28;19929;-82
2022/06/10 13:29:18;;;;;;;;;;;22.80;99.90;;;;;;4996843;28;19983;-81
2022/06/10 13:31:54;;;;;;;;;;;22.70;99.90;;;;;;5012102;28;19929;-80
2022/06/10 13:34:22;;;;;;;;;;;22.60;99.90;;;;;;5013225;28;19928;-81
2022/06/10 13:36:53;;;;;;;;;;;22.60;99.90;;;;;;5004571;28;20541;-80
2022/06/10 13:39:25;;;;;;;;;;;22.50;99.90;;;;;;4993988;28;19936;-81
2022/06/10 13:41:54;;;;;;;;;;;22.60;99.90;;;;;;4991066;28;19929;-82
2022/06/10 13:44:37;;;;;;;;;;;22.70;99.90;;;;;;5014286;28;19939;-80
2022/06/10 13:47:06;;;;;;;;;;;22.60;99.90;;;;;;5012859;28;19928;-82
2022/06/10 13:49:46;;;;;;;;;;;22.60;99.90;;;;;;5001473;28;19928;-80
2022/06/10 13:52:32;;;;;;;;;;;22.80;99.90;;;;;;5013595;28;20016;-81
2022/06/10 13:54:58;;;;;;;;;;;23.20;99.90;;;;;;5004155;28;20840;-81
2022/06/10 13:57:32;;;;;;;;;;;23.10;99.90;;;;;;5006401;28;20282;-80
2022/06/10 14:00:04;;;;;;;;;;;22.80;99.90;;;;;;5001382;28;19933;-82
2022/06/10 14:02:31;;;;;;;;;;;22.80;99.90;;;;;;4989434;28;19932;-83
2022/06/10 14:04:58;;;;;;;;;;;22.60;99.90;;;;;;4989633;28;19932;-82
2022/06/10 14:07:25;;;;;;;;;;;22.30;99.90;;;;;;5008775;28;20111;-82
2022/06/10 14:09:51;;;;;;;;;;;22.30;99.90;;;;;;4990939;28;19939;-84
2022/06/10 14:12:27;;;;;;;;;;;22.10;99.90;;;;;;4973671;28;19928;-84
2022/06/10 14:15:03;;;;;;;;;;;21.90;99.90;;;;;;4988026;28;19983;-83
2022/06/10 14:17:28;;;;;;;;;;;21.70;99.90;;;;;;4989606;28;20624;-80
2022/06/10 14:19:55;;;;;;;;;;;21.70;99.90;;;;;;5006377;28;19925;-80
2022/06/10 14:22:27;;;;;;;;;;;22.00;99.90;;;;;;4990139;28;21291;-82
2022/06/10 14:25:11;;;;;;;;;;;22.80;99.90;;;;;;5003767;28;19951;-81
2022/06/10 14:27:37;;;;;;;;;;;23.10;99.90;;;;;;5004214;28;19971;-81
2022/06/10 14:30:11;;;;;;;;;;;22.90;99.90;;;;;;5003501;28;20023;-80
2022/06/10 14:32:37;;;;;;;;;;;22.70;99.90;;;;;;4996702;28;19935;-76
2022/06/10 14:35:23;;;;;;;;;;;22.30;99.90;;;;;;5015319;28;19929;-84
2022/06/10 14:37:58;;;;;;;;;;;22.00;99.90;;;;;;4988453;28;19972;-81
2022/06/10 14:40:23;;;;;;;;;;;21.90;99.90;;;;;;4985884;28;20442;-82
2022/06/10 14:43:01;;;;;;;;;;;21.90;99.90;;;;;;4990728;28;20006;-80
2022/06/10 14:45:31;;;;;;;;;;;21.80;99.90;;;;;;4997429;28;20015;-82
2022/06/10 14:48:06;;;;;;;;;;;21.90;99.90;;;;;;4990032;28;19933;-80